sensor_id;sensor_type;location;lat;lon;timestamp;temperature;humidity
65369;HTU21D;51970;53.484;49.488;2024-01-06T00:02:02;-15.79;69.01
65369;HTU21D;51970;53.484;49.488;2024-01-06T00:04:28;-15.79;69.23
65369;HTU21D;51970;53.484;49.488;2024-01-06T00:06:55;-15.80;69.13
65369;HTU21D;51970;53.484;49.488;2024-01-06T00:09:21;-15.83;69.21
65369;HTU21D;51970;53.484;49.488;2024-01-06T00:11:47;-15.79;69.33
65369;HTU21D;51970;53.484;49.488;2024-01-06T00:14:13;-15.69;69.13
65369;HTU21D;51970;53.484;49.488;2024-01-06T00:16:40;-15.68;69.17
65369;HTU21D;51970;53.484;49.488;2024-01-06T00:19:06;-15.72;69.13
65369;HTU21D;51970;53.484;49.488;2024-01-06T00:21:33;-15.58;69.49
65369;HTU21D;51970;53.484;49.488;2024-01-06T00:23:59;-15.59;69.07
65369;HTU21D;51970;53.484;49.488;2024-01-06T00:26:26;-15.66;69.27
65369;HTU21D;51970;53.484;49.488;2024-01-06T00:28:52;-15.54;69.47
65369;HTU21D;51970;53.484;49.488;2024-01-06T00:31:18;-15.53;69.29
65369;HTU21D;51970;53.484;49.488;2024-01-06T00:33:45;-15.49;69.29
65369;HTU21D;51970;53.484;49.488;2024-01-06T00:36:12;-15.44;69.26
65369;HTU21D;51970;53.484;49.488;2024-01-06T00:38:38;-15.43;69.08
65369;HTU21D;51970;53.484;49.488;2024-01-06T00:41:04;-15.31;69.09
65369;HTU21D;51970;53.484;49.488;2024-01-06T00:43:31;-15.51;69.17
65369;HTU21D;51970;53.484;49.488;2024-01-06T00:45:57;-15.59;69.26
65369;HTU21D;51970;53.484;49.488;2024-01-06T00:48:23;-15.58;69.61
65369;HTU21D;51970;53.484;49.488;2024-01-06T00:50:50;-15.48;69.81
65369;HTU21D;51970;53.484;49.488;2024-01-06T00:53:16;-15.40;69.64
65369;HTU21D;51970;53.484;49.488;2024-01-06T00:55:42;-15.45;69.52
65369;HTU21D;51970;53.484;49.488;2024-01-06T00:58:09;-15.46;69.87
65369;HTU21D;51970;53.484;49.488;2024-01-06T01:00:35;-15.39;69.90
65369;HTU21D;51970;53.484;49.488;2024-01-06T01:03:01;-15.33;69.94
65369;HTU21D;51970;53.484;49.488;2024-01-06T01:05:28;-15.24;70.03
65369;HTU21D;51970;53.484;49.488;2024-01-06T01:07:54;-15.15;69.62
65369;HTU21D;51970;53.484;49.488;2024-01-06T01:10:20;-15.10;69.63
65369;HTU21D;51970;53.484;49.488;2024-01-06T01:12:47;-15.05;69.71
65369;HTU21D;51970;53.484;49.488;2024-01-06T01:15:13;-14.99;69.77
65369;HTU21D;51970;53.484;49.488;2024-01-06T01:17:40;-14.90;69.92
65369;HTU21D;51970;53.484;49.488;2024-01-06T01:20:07;-14.86;69.96
65369;HTU21D;51970;53.484;49.488;2024-01-06T01:22:34;-14.85;69.58
65369;HTU21D;51970;53.484;49.488;2024-01-06T01:25:00;-14.92;69.85
65369;HTU21D;51970;53.484;49.488;2024-01-06T01:27:31;-14.93;69.89
65369;HTU21D;51970;53.484;49.488;2024-01-06T01:29:57;-14.90;70.16
65369;HTU21D;51970;53.484;49.488;2024-01-06T01:32:23;-14.85;69.92
65369;HTU21D;51970;53.484;49.488;2024-01-06T01:34:49;-14.85;69.65
65369;HTU21D;51970;53.484;49.488;2024-01-06T01:37:16;-14.74;70.17
65369;HTU21D;51970;53.484;49.488;2024-01-06T01:39:42;-14.92;70.00
65369;HTU21D;51970;53.484;49.488;2024-01-06T01:42:08;-14.94;70.10
65369;HTU21D;51970;53.484;49.488;2024-01-06T01:44:34;-14.86;69.95
65369;HTU21D;51970;53.484;49.488;2024-01-06T01:47:00;-14.88;70.16
65369;HTU21D;51970;53.484;49.488;2024-01-06T01:49:26;-14.80;69.84
65369;HTU21D;51970;53.484;49.488;2024-01-06T01:51:52;-14.85;69.78
65369;HTU21D;51970;53.484;49.488;2024-01-06T01:54:18;-14.74;69.84
65369;HTU21D;51970;53.484;49.488;2024-01-06T01:56:44;-14.66;69.64
65369;HTU21D;51970;53.484;49.488;2024-01-06T01:59:11;-14.65;69.55
65369;HTU21D;51970;53.484;49.488;2024-01-06T02:01:41;-14.59;69.73
65369;HTU21D;51970;53.484;49.488;2024-01-06T02:04:08;-14.55;69.92
65369;HTU21D;51970;53.484;49.488;2024-01-06T02:06:34;-14.46;69.68
65369;HTU21D;51970;53.484;49.488;2024-01-06T02:09:01;-14.45;69.07
65369;HTU21D;51970;53.484;49.488;2024-01-06T02:11:27;-14.46;69.08
65369;HTU21D;51970;53.484;49.488;2024-01-06T02:13:53;-14.42;69.28
65369;HTU21D;51970;53.484;49.488;2024-01-06T02:16:19;-14.48;69.20
65369;HTU21D;51970;53.484;49.488;2024-01-06T02:18:45;-14.49;69.26
65369;HTU21D;51970;53.484;49.488;2024-01-06T02:21:13;-14.50;69.40
65369;HTU21D;51970;53.484;49.488;2024-01-06T02:23:39;-14.47;69.77
65369;HTU21D;51970;53.484;49.488;2024-01-06T02:26:05;-14.37;69.51
65369;HTU21D;51970;53.484;49.488;2024-01-06T02:28:32;-14.42;69.16
65369;HTU21D;51970;53.484;49.488;2024-01-06T02:30:59;-14.49;69.40
65369;HTU21D;51970;53.484;49.488;2024-01-06T02:33:25;-14.44;69.57
65369;HTU21D;51970;53.484;49.488;2024-01-06T02:35:51;-14.52;69.60
65369;HTU21D;51970;53.484;49.488;2024-01-06T02:38:17;-14.65;69.80
65369;HTU21D;51970;53.484;49.488;2024-01-06T02:40:43;-14.70;70.34
65369;HTU21D;51970;53.484;49.488;2024-01-06T02:43:09;-14.57;70.67
65369;HTU21D;51970;53.484;49.488;2024-01-06T02:45:36;-14.47;69.96
65369;HTU21D;51970;53.484;49.488;2024-01-06T02:48:02;-14.45;69.92
65369;HTU21D;51970;53.484;49.488;2024-01-06T02:50:28;-14.40;69.89
65369;HTU21D;51970;53.484;49.488;2024-01-06T02:52:54;-14.37;69.81
65369;HTU21D;51970;53.484;49.488;2024-01-06T02:55:20;-14.32;70.09
65369;HTU21D;51970;53.484;49.488;2024-01-06T02:57:46;-14.32;69.81
65369;HTU21D;51970;53.484;49.488;2024-01-06T03:00:13;-14.30;69.71
65369;HTU21D;51970;53.484;49.488;2024-01-06T03:02:39;-14.35;70.15
65369;HTU21D;51970;53.484;49.488;2024-01-06T03:05:08;-14.27;69.99
65369;HTU21D;51970;53.484;49.488;2024-01-06T03:07:35;-14.28;69.78
65369;HTU21D;51970;53.484;49.488;2024-01-06T03:10:01;-14.27;69.97
65369;HTU21D;51970;53.484;49.488;2024-01-06T03:12:27;-14.26;70.02
65369;HTU21D;51970;53.484;49.488;2024-01-06T03:14:53;-14.31;70.37
65369;HTU21D;51970;53.484;49.488;2024-01-06T03:17:19;-14.35;70.56
65369;HTU21D;51970;53.484;49.488;2024-01-06T03:19:45;-14.26;70.69
65369;HTU21D;51970;53.484;49.488;2024-01-06T03:22:11;-14.25;70.72
65369;HTU21D;51970;53.484;49.488;2024-01-06T03:24:37;-14.20;71.07
65369;HTU21D;51970;53.484;49.488;2024-01-06T03:27:04;-14.29;70.71
65369;HTU21D;51970;53.484;49.488;2024-01-06T03:29:31;-14.32;70.83
65369;HTU21D;51970;53.484;49.488;2024-01-06T03:31:57;-14.30;70.97
65369;HTU21D;51970;53.484;49.488;2024-01-06T03:34:23;-14.34;71.06
65369;HTU21D;51970;53.484;49.488;2024-01-06T03:36:50;-14.14;71.23
65369;HTU21D;51970;53.484;49.488;2024-01-06T03:39:17;-14.28;70.73
65369;HTU21D;51970;53.484;49.488;2024-01-06T03:41:43;-14.19;70.81
65369;HTU21D;51970;53.484;49.488;2024-01-06T03:44:09;-14.16;70.96
65369;HTU21D;51970;53.484;49.488;2024-01-06T03:46:36;-14.23;71.07
65369;HTU21D;51970;53.484;49.488;2024-01-06T03:49:02;-14.19;71.32
65369;HTU21D;51970;53.484;49.488;2024-01-06T03:51:29;-14.20;71.31
65369;HTU21D;51970;53.484;49.488;2024-01-06T03:53:55;-14.20;71.18
65369;HTU21D;51970;53.484;49.488;2024-01-06T03:56:22;-14.17;70.91
65369;HTU21D;51970;53.484;49.488;2024-01-06T03:58:48;-14.06;71.11
65369;HTU21D;51970;53.484;49.488;2024-01-06T04:01:14;-14.17;70.87
65369;HTU21D;51970;53.484;49.488;2024-01-06T04:03:41;-14.04;71.26
65369;HTU21D;51970;53.484;49.488;2024-01-06T04:06:07;-14.10;71.31
65369;HTU21D;51970;53.484;49.488;2024-01-06T04:08:36;-14.05;71.08
65369;HTU21D;51970;53.484;49.488;2024-01-06T04:11:02;-14.08;71.35
65369;HTU21D;51970;53.484;49.488;2024-01-06T04:13:28;-14.13;71.16
65369;HTU21D;51970;53.484;49.488;2024-01-06T04:15:55;-14.13;71.32
65369;HTU21D;51970;53.484;49.488;2024-01-06T04:18:21;-14.08;71.08
65369;HTU21D;51970;53.484;49.488;2024-01-06T04:20:47;-13.99;71.15
65369;HTU21D;51970;53.484;49.488;2024-01-06T04:23:14;-13.99;70.88
65369;HTU21D;51970;53.484;49.488;2024-01-06T04:25:40;-14.07;70.83
65369;HTU21D;51970;53.484;49.488;2024-01-06T04:28:06;-13.97;70.93
65369;HTU21D;51970;53.484;49.488;2024-01-06T04:30:32;-13.93;70.51
65369;HTU21D;51970;53.484;49.488;2024-01-06T04:32:59;-13.95;70.44
65369;HTU21D;51970;53.484;49.488;2024-01-06T04:35:25;-13.92;70.68
65369;HTU21D;51970;53.484;49.488;2024-01-06T04:37:51;-13.97;71.07
65369;HTU21D;51970;53.484;49.488;2024-01-06T04:40:17;-13.98;70.68
65369;HTU21D;51970;53.484;49.488;2024-01-06T04:42:44;-14.10;70.97
65369;HTU21D;51970;53.484;49.488;2024-01-06T04:45:10;-14.08;71.26
65369;HTU21D;51970;53.484;49.488;2024-01-06T04:47:36;-14.02;71.55
65369;HTU21D;51970;53.484;49.488;2024-01-06T04:50:02;-13.95;71.58
65369;HTU21D;51970;53.484;49.488;2024-01-06T04:52:28;-13.87;71.40
65369;HTU21D;51970;53.484;49.488;2024-01-06T04:54:55;-13.71;71.15
65369;HTU21D;51970;53.484;49.488;2024-01-06T04:57:21;-13.68;70.71
65369;HTU21D;51970;53.484;49.488;2024-01-06T04:59:48;-13.70;70.71
65369;HTU21D;51970;53.484;49.488;2024-01-06T05:02:15;-13.66;70.57
65369;HTU21D;51970;53.484;49.488;2024-01-06T05:04:41;-13.69;70.32
65369;HTU21D;51970;53.484;49.488;2024-01-06T05:07:07;-13.65;70.37
65369;HTU21D;51970;53.484;49.488;2024-01-06T05:09:33;-13.65;70.40
65369;HTU21D;51970;53.484;49.488;2024-01-06T05:11:59;-13.65;70.52
65369;HTU21D;51970;53.484;49.488;2024-01-06T05:14:25;-13.73;70.71
65369;HTU21D;51970;53.484;49.488;2024-01-06T05:16:51;-13.69;70.72
65369;HTU21D;51970;53.484;49.488;2024-01-06T05:19:17;-13.61;70.29
65369;HTU21D;51970;53.484;49.488;2024-01-06T05:21:47;-13.68;70.41
65369;HTU21D;51970;53.484;49.488;2024-01-06T05:24:13;-13.68;70.36
65369;HTU21D;51970;53.484;49.488;2024-01-06T05:26:39;-13.81;70.52
65369;HTU21D;51970;53.484;49.488;2024-01-06T05:29:06;-13.89;70.84
65369;HTU21D;51970;53.484;49.488;2024-01-06T05:31:32;-13.86;71.24
65369;HTU21D;51970;53.484;49.488;2024-01-06T05:33:59;-13.89;70.97
65369;HTU21D;51970;53.484;49.488;2024-01-06T05:36:25;-13.81;71.30
65369;HTU21D;51970;53.484;49.488;2024-01-06T05:38:51;-13.85;71.04
65369;HTU21D;51970;53.484;49.488;2024-01-06T05:41:17;-13.80;71.01
65369;HTU21D;51970;53.484;49.488;2024-01-06T05:43:43;-13.78;70.95
65369;HTU21D;51970;53.484;49.488;2024-01-06T05:46:09;-13.73;70.94
65369;HTU21D;51970;53.484;49.488;2024-01-06T05:48:37;-13.66;70.61
65369;HTU21D;51970;53.484;49.488;2024-01-06T05:51:04;-13.55;70.40
65369;HTU21D;51970;53.484;49.488;2024-01-06T05:53:31;-13.63;70.14
65369;HTU21D;51970;53.484;49.488;2024-01-06T05:55:58;-13.71;70.45
65369;HTU21D;51970;53.484;49.488;2024-01-06T05:58:24;-13.68;70.40
65369;HTU21D;51970;53.484;49.488;2024-01-06T06:00:50;-13.56;70.54
65369;HTU21D;51970;53.484;49.488;2024-01-06T06:03:17;-13.40;70.27
65369;HTU21D;51970;53.484;49.488;2024-01-06T06:05:43;-13.33;70.13
65369;HTU21D;51970;53.484;49.488;2024-01-06T06:08:10;-13.22;69.75
65369;HTU21D;51970;53.484;49.488;2024-01-06T06:10:37;-13.26;69.43
65369;HTU21D;51970;53.484;49.488;2024-01-06T06:13:29;-13.22;69.65
65369;HTU21D;51970;53.484;49.488;2024-01-06T06:15:55;-13.21;69.33
65369;HTU21D;51970;53.484;49.488;2024-01-06T06:18:21;-13.15;69.48
65369;HTU21D;51970;53.484;49.488;2024-01-06T06:20:47;-13.22;69.78
65369;HTU21D;51970;53.484;49.488;2024-01-06T06:23:14;-13.00;69.39
65369;HTU21D;51970;53.484;49.488;2024-01-06T06:25:40;-13.23;69.60
65369;HTU21D;51970;53.484;49.488;2024-01-06T06:28:06;-13.21;69.84
65369;HTU21D;51970;53.484;49.488;2024-01-06T06:30:32;-13.17;69.42
65369;HTU21D;51970;53.484;49.488;2024-01-06T06:32:59;-13.16;69.74
65369;HTU21D;51970;53.484;49.488;2024-01-06T06:35:25;-12.97;69.52
65369;HTU21D;51970;53.484;49.488;2024-01-06T06:37:52;-12.97;69.29
65369;HTU21D;51970;53.484;49.488;2024-01-06T06:40:18;-12.91;68.77
65369;HTU21D;51970;53.484;49.488;2024-01-06T06:42:45;-12.95;68.97
65369;HTU21D;51970;53.484;49.488;2024-01-06T06:45:12;-12.94;69.00
65369;HTU21D;51970;53.484;49.488;2024-01-06T06:47:38;-12.91;68.87
65369;HTU21D;51970;53.484;49.488;2024-01-06T06:50:05;-12.96;68.94
65369;HTU21D;51970;53.484;49.488;2024-01-06T06:52:31;-12.94;69.12
65369;HTU21D;51970;53.484;49.488;2024-01-06T06:54:57;-12.95;69.07
65369;HTU21D;51970;53.484;49.488;2024-01-06T06:57:24;-12.89;68.74
65369;HTU21D;51970;53.484;49.488;2024-01-06T06:59:50;-12.83;69.03
65369;HTU21D;51970;53.484;49.488;2024-01-06T07:02:16;-12.81;68.55
65369;HTU21D;51970;53.484;49.488;2024-01-06T07:04:43;-12.68;68.66
65369;HTU21D;51970;53.484;49.488;2024-01-06T07:07:09;-12.48;68.44
65369;HTU21D;51970;53.484;49.488;2024-01-06T07:09:35;-12.53;68.14
65369;HTU21D;51970;53.484;49.488;2024-01-06T07:12:02;-12.59;68.36
65369;HTU21D;51970;53.484;49.488;2024-01-06T07:14:28;-12.55;68.35
65369;HTU21D;51970;53.484;49.488;2024-01-06T07:16:55;-12.49;68.05
65369;HTU21D;51970;53.484;49.488;2024-01-06T07:19:21;-12.49;67.97
65369;HTU21D;51970;53.484;49.488;2024-01-06T07:21:47;-12.40;68.62
65369;HTU21D;51970;53.484;49.488;2024-01-06T07:24:14;-12.24;67.84
65369;HTU21D;51970;53.484;49.488;2024-01-06T07:26:40;-12.30;67.17
65369;HTU21D;51970;53.484;49.488;2024-01-06T07:29:06;-12.14;67.46
65369;HTU21D;51970;53.484;49.488;2024-01-06T07:31:34;-12.19;67.39
65369;HTU21D;51970;53.484;49.488;2024-01-06T07:34:00;-12.18;67.59
65369;HTU21D;51970;53.484;49.488;2024-01-06T07:36:26;-11.97;67.49
65369;HTU21D;51970;53.484;49.488;2024-01-06T07:38:52;-12.08;67.23
65369;HTU21D;51970;53.484;49.488;2024-01-06T07:41:18;-12.11;67.56
65369;HTU21D;51970;53.484;49.488;2024-01-06T07:43:44;-12.03;67.40
65369;HTU21D;51970;53.484;49.488;2024-01-06T07:46:11;-11.91;67.33
65369;HTU21D;51970;53.484;49.488;2024-01-06T07:48:37;-11.93;67.46
65369;HTU21D;51970;53.484;49.488;2024-01-06T07:51:03;-11.86;67.22
65369;HTU21D;51970;53.484;49.488;2024-01-06T07:53:29;-11.76;66.68
65369;HTU21D;51970;53.484;49.488;2024-01-06T07:55:55;-11.84;66.81
65369;HTU21D;51970;53.484;49.488;2024-01-06T07:58:21;-11.81;66.82
65369;HTU21D;51970;53.484;49.488;2024-01-06T08:00:48;-11.85;66.81
65369;HTU21D;51970;53.484;49.488;2024-01-06T08:03:14;-11.88;66.99
65369;HTU21D;51970;53.484;49.488;2024-01-06T08:05:42;-11.88;67.15
65369;HTU21D;51970;53.484;49.488;2024-01-06T08:08:08;-11.69;66.85
65369;HTU21D;51970;53.484;49.488;2024-01-06T08:10:34;-11.71;66.33
65369;HTU21D;51970;53.484;49.488;2024-01-06T08:13:00;-11.78;66.42
65369;HTU21D;51970;53.484;49.488;2024-01-06T08:15:26;-11.84;66.58
65369;HTU21D;51970;53.484;49.488;2024-01-06T08:17:52;-11.89;66.69
65369;HTU21D;51970;53.484;49.488;2024-01-06T08:20:18;-11.92;66.40
65369;HTU21D;51970;53.484;49.488;2024-01-06T08:22:44;-11.79;66.63
65369;HTU21D;51970;53.484;49.488;2024-01-06T08:25:10;-11.80;66.31
65369;HTU21D;51970;53.484;49.488;2024-01-06T08:27:36;-11.75;66.62
65369;HTU21D;51970;53.484;49.488;2024-01-06T08:30:04;-11.70;66.53
65369;HTU21D;51970;53.484;49.488;2024-01-06T08:32:30;-11.62;65.98
65369;HTU21D;51970;53.484;49.488;2024-01-06T08:34:56;-11.65;66.20
65369;HTU21D;51970;53.484;49.488;2024-01-06T08:37:23;-11.82;65.91
65369;HTU21D;51970;53.484;49.488;2024-01-06T08:39:49;-11.78;66.33
65369;HTU21D;51970;53.484;49.488;2024-01-06T08:42:15;-11.88;66.15
65369;HTU21D;51970;53.484;49.488;2024-01-06T08:44:42;-11.89;66.45
65369;HTU21D;51970;53.484;49.488;2024-01-06T08:47:09;-11.77;66.53
65369;HTU21D;51970;53.484;49.488;2024-01-06T08:49:36;-11.80;65.82
65369;HTU21D;51970;53.484;49.488;2024-01-06T08:52:03;-11.92;65.87
65369;HTU21D;51970;53.484;49.488;2024-01-06T08:54:29;-12.06;66.51
65369;HTU21D;51970;53.484;49.488;2024-01-06T08:56:56;-11.95;66.86
65369;HTU21D;51970;53.484;49.488;2024-01-06T08:59:22;-11.83;66.34
65369;HTU21D;51970;53.484;49.488;2024-01-06T09:01:49;-11.56;66.46
65369;HTU21D;51970;53.484;49.488;2024-01-06T09:04:15;-11.59;65.38
65369;HTU21D;51970;53.484;49.488;2024-01-06T09:06:42;-11.54;65.26
65369;HTU21D;51970;53.484;49.488;2024-01-06T09:09:08;-11.35;64.98
65369;HTU21D;51970;53.484;49.488;2024-01-06T09:11:36;-11.58;64.95
65369;HTU21D;51970;53.484;49.488;2024-01-06T09:14:02;-11.54;65.09
65369;HTU21D;51970;53.484;49.488;2024-01-06T09:16:29;-11.69;65.10
65369;HTU21D;51970;53.484;49.488;2024-01-06T09:18:55;-11.83;65.65
65369;HTU21D;51970;53.484;49.488;2024-01-06T09:21:22;-11.68;66.07
65369;HTU21D;51970;53.484;49.488;2024-01-06T09:23:48;-11.68;65.67
65369;HTU21D;51970;53.484;49.488;2024-01-06T09:26:14;-11.80;65.63
65369;HTU21D;51970;53.484;49.488;2024-01-06T09:28:42;-11.61;65.99
65369;HTU21D;51970;53.484;49.488;2024-01-06T09:31:08;-11.49;65.54
65369;HTU21D;51970;53.484;49.488;2024-01-06T09:33:34;-11.59;64.91
65369;HTU21D;51970;53.484;49.488;2024-01-06T09:36:01;-11.61;65.08
65369;HTU21D;51970;53.484;49.488;2024-01-06T09:38:27;-11.53;65.28
65369;HTU21D;51970;53.484;49.488;2024-01-06T09:40:55;-11.73;65.69
65369;HTU21D;51970;53.484;49.488;2024-01-06T09:43:22;-11.86;65.89
65369;HTU21D;51970;53.484;49.488;2024-01-06T09:45:48;-11.91;66.18
65369;HTU21D;51970;53.484;49.488;2024-01-06T09:48:20;-11.92;66.62
65369;HTU21D;51970;53.484;49.488;2024-01-06T09:50:49;-11.86;66.60
65369;HTU21D;51970;53.484;49.488;2024-01-06T09:53:18;-11.83;66.56
65369;HTU21D;51970;53.484;49.488;2024-01-06T09:55:45;-11.84;66.36
65369;HTU21D;51970;53.484;49.488;2024-01-06T09:58:12;-11.69;66.14
65369;HTU21D;51970;53.484;49.488;2024-01-06T10:00:38;-11.61;65.79
65369;HTU21D;51970;53.484;49.488;2024-01-06T10:03:04;-11.52;65.43
65369;HTU21D;51970;53.484;49.488;2024-01-06T10:05:30;-11.60;65.58
65369;HTU21D;51970;53.484;49.488;2024-01-06T10:07:56;-11.46;65.48
65369;HTU21D;51970;53.484;49.488;2024-01-06T10:10:23;-11.42;65.11
65369;HTU21D;51970;53.484;49.488;2024-01-06T10:12:53;-11.50;65.09
65369;HTU21D;51970;53.484;49.488;2024-01-06T10:15:20;-11.61;65.20
65369;HTU21D;51970;53.484;49.488;2024-01-06T10:17:48;-11.61;65.63
65369;HTU21D;51970;53.484;49.488;2024-01-06T10:20:14;-11.62;65.72
65369;HTU21D;51970;53.484;49.488;2024-01-06T10:22:42;-11.48;65.90
65369;HTU21D;51970;53.484;49.488;2024-01-06T10:25:10;-11.48;65.40
65369;HTU21D;51970;53.484;49.488;2024-01-06T10:27:41;-11.45;65.01
65369;HTU21D;51970;53.484;49.488;2024-01-06T10:30:08;-11.56;65.02
65369;HTU21D;51970;53.484;49.488;2024-01-06T10:32:35;-11.54;65.44
65369;HTU21D;51970;53.484;49.488;2024-01-06T10:35:03;-11.61;65.16
65369;HTU21D;51970;53.484;49.488;2024-01-06T10:37:30;-11.56;65.78
65369;HTU21D;51970;53.484;49.488;2024-01-06T10:40:09;-11.38;65.33
65369;HTU21D;51970;53.484;49.488;2024-01-06T10:42:40;-11.37;65.27
65369;HTU21D;51970;53.484;49.488;2024-01-06T10:45:07;-11.52;65.24
65369;HTU21D;51970;53.484;49.488;2024-01-06T10:47:41;-11.30;65.33
65369;HTU21D;51970;53.484;49.488;2024-01-06T10:50:11;-11.52;65.59
65369;HTU21D;51970;53.484;49.488;2024-01-06T10:52:38;-11.68;66.53
65369;HTU21D;51970;53.484;49.488;2024-01-06T10:55:05;-11.60;66.75
65369;HTU21D;51970;53.484;49.488;2024-01-06T10:57:31;-11.62;66.95
65369;HTU21D;51970;53.484;49.488;2024-01-06T10:59:59;-11.61;67.10
65369;HTU21D;51970;53.484;49.488;2024-01-06T11:02:26;-11.49;67.04
65369;HTU21D;51970;53.484;49.488;2024-01-06T11:04:55;-11.37;66.78
65369;HTU21D;51970;53.484;49.488;2024-01-06T11:07:22;-11.52;66.37
65369;HTU21D;51970;53.484;49.488;2024-01-06T11:10:25;-11.85;66.88
65369;HTU21D;51970;53.484;49.488;2024-01-06T11:13:09;-12.00;67.95
65369;HTU21D;51970;53.484;49.488;2024-01-06T11:15:39;-11.96;68.05
65369;HTU21D;51970;53.484;49.488;2024-01-06T11:18:06;-12.04;67.59
65369;HTU21D;51970;53.484;49.488;2024-01-06T11:20:32;-12.17;68.22
65369;HTU21D;51970;53.484;49.488;2024-01-06T11:23:18;-12.38;68.37
65369;HTU21D;51970;53.484;49.488;2024-01-06T11:25:46;-12.60;69.13
65369;HTU21D;51970;53.484;49.488;2024-01-06T11:28:12;-12.53;69.59
65369;HTU21D;51970;53.484;49.488;2024-01-06T11:30:38;-12.38;69.42
65369;HTU21D;51970;53.484;49.488;2024-01-06T11:33:06;-12.26;68.94
65369;HTU21D;51970;53.484;49.488;2024-01-06T11:35:34;-12.18;69.01
65369;HTU21D;51970;53.484;49.488;2024-01-06T11:38:03;-12.13;68.25
65369;HTU21D;51970;53.484;49.488;2024-01-06T11:40:36;-11.99;68.29
65369;HTU21D;51970;53.484;49.488;2024-01-06T11:43:08;-12.19;68.69
65369;HTU21D;51970;53.484;49.488;2024-01-06T11:45:37;-12.24;68.45
65369;HTU21D;51970;53.484;49.488;2024-01-06T11:48:07;-12.27;68.43
65369;HTU21D;51970;53.484;49.488;2024-01-06T11:50:35;-12.26;68.30
65369;HTU21D;51970;53.484;49.488;2024-01-06T11:53:03;-12.20;68.26
65369;HTU21D;51970;53.484;49.488;2024-01-06T11:55:30;-12.33;68.13
65369;HTU21D;51970;53.484;49.488;2024-01-06T11:58:01;-12.29;68.37
65369;HTU21D;51970;53.484;49.488;2024-01-06T12:00:29;-12.58;69.62
65369;HTU21D;51970;53.484;49.488;2024-01-06T12:02:56;-12.67;69.15
65369;HTU21D;51970;53.484;49.488;2024-01-06T12:05:23;-12.67;69.38
65369;HTU21D;51970;53.484;49.488;2024-01-06T12:07:58;-12.80;70.13
65369;HTU21D;51970;53.484;49.488;2024-01-06T12:10:26;-12.88;69.98
65369;HTU21D;51970;53.484;49.488;2024-01-06T12:15:26;-12.91;70.54
65369;HTU21D;51970;53.484;49.488;2024-01-06T12:17:52;-12.62;69.95
65369;HTU21D;51970;53.484;49.488;2024-01-06T12:20:18;-12.99;70.32
65369;HTU21D;51970;53.484;49.488;2024-01-06T12:22:45;-12.88;70.58
65369;HTU21D;51970;53.484;49.488;2024-01-06T12:25:11;-12.97;70.29
65369;HTU21D;51970;53.484;49.488;2024-01-06T12:27:42;-13.04;70.84
65369;HTU21D;51970;53.484;49.488;2024-01-06T12:30:16;-13.02;70.56
65369;HTU21D;51970;53.484;49.488;2024-01-06T12:32:45;-12.74;70.74
65369;HTU21D;51970;53.484;49.488;2024-01-06T12:35:12;-13.04;70.45
65369;HTU21D;51970;53.484;49.488;2024-01-06T12:37:39;-13.04;70.68
65369;HTU21D;51970;53.484;49.488;2024-01-06T12:40:05;-13.04;70.90
65369;HTU21D;51970;53.484;49.488;2024-01-06T12:42:34;-13.04;70.64
65369;HTU21D;51970;53.484;49.488;2024-01-06T12:45:00;-13.13;70.64
65369;HTU21D;51970;53.484;49.488;2024-01-06T12:47:27;-13.12;71.05
65369;HTU21D;51970;53.484;49.488;2024-01-06T12:49:53;-13.08;71.22
65369;HTU21D;51970;53.484;49.488;2024-01-06T12:52:20;-13.10;71.14
65369;HTU21D;51970;53.484;49.488;2024-01-06T12:54:46;-13.12;70.98
65369;HTU21D;51970;53.484;49.488;2024-01-06T12:57:12;-13.17;71.03
65369;HTU21D;51970;53.484;49.488;2024-01-06T12:59:39;-13.18;71.38
65369;HTU21D;51970;53.484;49.488;2024-01-06T13:02:05;-13.11;71.28
65369;HTU21D;51970;53.484;49.488;2024-01-06T13:04:32;-13.13;71.10
65369;HTU21D;51970;53.484;49.488;2024-01-06T13:06:58;-13.10;71.16
65369;HTU21D;51970;53.484;49.488;2024-01-06T13:09:25;-13.12;70.81
65369;HTU21D;51970;53.484;49.488;2024-01-06T13:11:52;-13.09;70.77
65369;HTU21D;51970;53.484;49.488;2024-01-06T13:14:19;-13.10;70.99
65369;HTU21D;51970;53.484;49.488;2024-01-06T13:16:45;-13.10;70.99
65369;HTU21D;51970;53.484;49.488;2024-01-06T13:19:11;-13.01;70.71
65369;HTU21D;51970;53.484;49.488;2024-01-06T13:21:37;-13.09;70.56
65369;HTU21D;51970;53.484;49.488;2024-01-06T13:24:08;-13.12;70.97
65369;HTU21D;51970;53.484;49.488;2024-01-06T13:26:35;-13.17;71.24
65369;HTU21D;51970;53.484;49.488;2024-01-06T13:29:02;-13.07;71.17
65369;HTU21D;51970;53.484;49.488;2024-01-06T13:31:28;-13.07;70.64
65369;HTU21D;51970;53.484;49.488;2024-01-06T13:33:54;-13.13;70.69
65369;HTU21D;51970;53.484;49.488;2024-01-06T13:36:21;-13.21;70.75
65369;HTU21D;51970;53.484;49.488;2024-01-06T13:38:47;-13.12;70.75
65369;HTU21D;51970;53.484;49.488;2024-01-06T13:41:14;-12.97;70.97
65369;HTU21D;51970;53.484;49.488;2024-01-06T13:43:41;-12.91;70.82
65369;HTU21D;51970;53.484;49.488;2024-01-06T13:46:07;-12.91;70.42
65369;HTU21D;51970;53.484;49.488;2024-01-06T13:48:33;-12.99;70.33
65369;HTU21D;51970;53.484;49.488;2024-01-06T13:50:59;-13.04;70.52
65369;HTU21D;51970;53.484;49.488;2024-01-06T13:53:26;-13.01;70.75
65369;HTU21D;51970;53.484;49.488;2024-01-06T13:55:52;-13.03;70.57
65369;HTU21D;51970;53.484;49.488;2024-01-06T13:58:18;-13.01;70.89
65369;HTU21D;51970;53.484;49.488;2024-01-06T14:00:45;-12.96;70.71
65369;HTU21D;51970;53.484;49.488;2024-01-06T14:03:11;-12.97;70.58
65369;HTU21D;51970;53.484;49.488;2024-01-06T14:05:37;-13.00;70.66
65369;HTU21D;51970;53.484;49.488;2024-01-06T14:08:03;-12.96;70.42
65369;HTU21D;51970;53.484;49.488;2024-01-06T14:10:30;-13.07;70.52
65369;HTU21D;51970;53.484;49.488;2024-01-06T14:12:57;-12.98;70.75
65369;HTU21D;51970;53.484;49.488;2024-01-06T14:15:24;-12.89;70.53
65369;HTU21D;51970;53.484;49.488;2024-01-06T14:17:52;-12.89;70.17
65369;HTU21D;51970;53.484;49.488;2024-01-06T14:20:19;-12.99;70.05
65369;HTU21D;51970;53.484;49.488;2024-01-06T14:22:45;-12.97;70.46
65369;HTU21D;51970;53.484;49.488;2024-01-06T14:25:13;-13.04;70.72
65369;HTU21D;51970;53.484;49.488;2024-01-06T14:27:39;-12.93;70.86
65369;HTU21D;51970;53.484;49.488;2024-01-06T14:30:06;-13.23;71.51
65369;HTU21D;51970;53.484;49.488;2024-01-06T14:32:36;-13.13;71.89
65369;HTU21D;51970;53.484;49.488;2024-01-06T14:35:05;-12.84;71.26
65369;HTU21D;51970;53.484;49.488;2024-01-06T14:37:39;-13.12;71.24
65369;HTU21D;51970;53.484;49.488;2024-01-06T14:40:08;-13.11;71.11
65369;HTU21D;51970;53.484;49.488;2024-01-06T14:42:35;-13.10;70.89
65369;HTU21D;51970;53.484;49.488;2024-01-06T14:45:02;-13.17;71.41
65369;HTU21D;51970;53.484;49.488;2024-01-06T14:47:28;-13.14;71.55
65369;HTU21D;51970;53.484;49.488;2024-01-06T14:49:54;-13.21;71.36